Time;durP1;ratioP1;P1;durP2;ratioP2;P2;SDS_P1;SDS_P2;PMS_P1;PMS_P2;Temp;Humidity;BMP_temperature;BMP_pressure;BME280_temperature;BME280_humidity;BME280_pressure;Samples;Min_cycle;Max_cycle;Signal;HPM_P1;HPM_P2
2023/05/05 00:02:10;;;;;;;25.87;24.27;;;;;;;;;;5079765;28;20535;-79
2023/05/05 00:04:37;;;;;;;24.70;23.30;;;;;;;;;;5079682;28;20561;-79
2023/05/05 00:07:04;;;;;;;24.90;23.33;;;;;;;;;;5080207;28;20449;-80
2023/05/05 00:09:31;;;;;;;25.93;24.20;;;;;;;;;;5080742;28;20462;-80
2023/05/05 00:11:58;;;;;;;25.43;23.63;;;;;;;;;;5080679;28;20503;-79
2023/05/05 00:14:26;;;;;;;25.30;23.90;;;;;;;;;;5080204;28;20432;-79
2023/05/05 00:16:53;;;;;;;25.20;23.60;;;;;;;;;;5079163;28;20503;-79
2023/05/05 00:19:20;;;;;;;25.70;24.20;;;;;;;;;;5080586;28;20841;-79
2023/05/05 00:21:47;;;;;;;25.07;23.67;;;;;;;;;;5080694;28;20438;-79
2023/05/05 00:24:14;;;;;;;25.10;23.70;;;;;;;;;;5079871;28;20469;-79
2023/05/05 00:26:41;;;;;;;25.67;23.80;;;;;;;;;;5079538;28;20495;-79
2023/05/05 00:29:08;;;;;;;24.83;23.27;;;;;;;;;;5079269;28;20448;-78
2023/05/05 00:31:36;;;;;;;26.10;24.03;;;;;;;;;;5079159;28;20595;-79
2023/05/05 00:34:03;;;;;;;24.40;23.00;;;;;;;;;;5078821;28;20966;-79
2023/05/05 00:36:30;;;;;;;25.70;24.00;;;;;;;;;;5079042;28;20531;-79
2023/05/05 00:38:57;;;;;;;24.77;23.37;;;;;;;;;;5079756;28;20482;-79
2023/05/05 00:41:24;;;;;;;24.73;23.23;;;;;;;;;;5078811;28;20446;-79
2023/05/05 00:43:51;;;;;;;24.57;23.17;;;;;;;;;;5079299;28;20536;-78
2023/05/05 00:46:23;;;;;;;24.93;23.07;;;;;;;;;;5078474;28;20474;-79
2023/05/05 00:48:51;;;;;;;24.60;22.83;;;;;;;;;;5079686;28;20466;-79
2023/05/05 00:51:19;;;;;;;25.73;23.80;;;;;;;;;;5079189;28;20954;-79
2023/05/05 00:53:46;;;;;;;24.50;22.93;;;;;;;;;;5078948;28;20420;-79
2023/05/05 00:56:14;;;;;;;25.10;23.37;;;;;;;;;;5077886;28;20471;-78
2023/05/05 00:58:42;;;;;;;24.67;22.97;;;;;;;;;;5078628;28;20452;-79
2023/05/05 01:01:09;;;;;;;24.40;23.00;;;;;;;;;;5078093;28;20449;-80
2023/05/05 01:03:36;;;;;;;26.80;24.80;;;;;;;;;;5079272;28;20462;-79
2023/05/05 01:06:10;;;;;;;24.97;23.53;;;;;;;;;;5078008;28;20474;-79
2023/05/05 01:08:42;;;;;;;25.33;23.73;;;;;;;;;;5078565;28;20405;-79
2023/05/05 01:11:12;;;;;;;24.70;23.20;;;;;;;;;;5079615;28;20445;-79
2023/05/05 01:13:44;;;;;;;26.07;24.10;;;;;;;;;;5079534;28;20438;-79
2023/05/05 01:16:14;;;;;;;25.50;23.80;;;;;;;;;;5078774;28;20469;-79
2023/05/05 01:18:51;;;;;;;25.20;23.40;;;;;;;;;;5079200;28;20430;-80
2023/05/05 01:21:23;;;;;;;24.60;23.07;;;;;;;;;;5078574;28;20419;-79
2023/05/05 01:24:09;;;;;;;24.23;22.70;;;;;;;;;;5078047;28;20562;-79
2023/05/05 01:26:51;;;;;;;24.87;23.37;;;;;;;;;;5077287;28;20448;-80
2023/05/05 01:29:27;;;;;;;23.77;22.20;;;;;;;;;;5078035;28;20981;-79
2023/05/05 01:31:58;;;;;;;24.53;23.03;;;;;;;;;;5078099;28;20408;-79
2023/05/05 01:34:26;;;;;;;25.00;23.43;;;;;;;;;;5077930;28;20930;-79
2023/05/05 01:36:56;;;;;;;24.43;23.03;;;;;;;;;;5077785;28;20448;-79
2023/05/05 01:39:24;;;;;;;24.03;22.63;;;;;;;;;;5077575;28;20518;-79
2023/05/05 01:41:52;;;;;;;23.77;22.20;;;;;;;;;;5077438;28;20425;-77
2023/05/05 01:44:20;;;;;;;24.17;22.77;;;;;;;;;;5075932;28;20456;-78
2023/05/05 01:46:48;;;;;;;23.97;22.60;;;;;;;;;;5078262;28;20432;-79
2023/05/05 01:49:16;;;;;;;25.23;23.30;;;;;;;;;;5078328;28;20501;-79
2023/05/05 01:51:46;;;;;;;25.37;23.70;;;;;;;;;;5078574;28;20466;-80
2023/05/05 01:54:13;;;;;;;25.10;23.60;;;;;;;;;;5078033;28;20838;-80
2023/05/05 01:56:41;;;;;;;24.73;23.23;;;;;;;;;;5078381;28;20421;-79
2023/05/05 01:59:08;;;;;;;25.00;23.33;;;;;;;;;;5078854;28;20466;-79
2023/05/05 02:01:36;;;;;;;24.97;23.43;;;;;;;;;;5078333;28;20515;-79
2023/05/05 02:04:03;;;;;;;25.00;23.30;;;;;;;;;;5078161;28;20522;-79
2023/05/05 02:06:33;;;;;;;24.50;23.00;;;;;;;;;;5077750;28;20495;-79
2023/05/05 02:09:01;;;;;;;25.27;23.57;;;;;;;;;;5076991;28;20519;-79
2023/05/05 02:11:28;;;;;;;24.37;22.90;;;;;;;;;;5077551;28;20482;-79
2023/05/05 02:13:56;;;;;;;24.80;22.97;;;;;;;;;;5077622;28;20446;-79
2023/05/05 02:16:23;;;;;;;24.60;23.10;;;;;;;;;;5077709;28;20831;-80
2023/05/05 02:18:51;;;;;;;24.47;22.83;;;;;;;;;;5077232;28;20465;-79
2023/05/05 02:21:18;;;;;;;24.10;22.70;;;;;;;;;;5080012;28;20523;-79
2023/05/05 02:23:50;;;;;;;24.17;22.50;;;;;;;;;;5081458;28;20531;-79
2023/05/05 02:26:17;;;;;;;25.40;23.60;;;;;;;;;;5080619;28;20429;-79
2023/05/05 02:28:48;;;;;;;24.83;23.30;;;;;;;;;;5080802;28;21022;-79
2023/05/05 02:31:16;;;;;;;23.50;22.20;;;;;;;;;;5081047;28;20932;-79
2023/05/05 02:33:43;;;;;;;23.57;22.27;;;;;;;;;;5081089;28;20413;-79
2023/05/05 02:36:12;;;;;;;23.80;22.50;;;;;;;;;;5080155;28;20440;-79
2023/05/05 02:38:42;;;;;;;24.10;22.70;;;;;;;;;;5080860;28;20424;-79
2023/05/05 02:41:12;;;;;;;24.33;23.03;;;;;;;;;;5081116;28;20468;-80
2023/05/05 02:43:40;;;;;;;24.13;22.63;;;;;;;;;;5080204;28;20886;-79
2023/05/05 02:46:07;;;;;;;24.33;22.90;;;;;;;;;;5080168;28;20428;-79
2023/05/05 02:48:34;;;;;;;23.50;22.10;;;;;;;;;;5080769;28;20421;-79
2023/05/05 02:51:01;;;;;;;24.87;23.37;;;;;;;;;;5080969;28;20824;-80
2023/05/05 02:53:28;;;;;;;24.30;22.90;;;;;;;;;;5091885;28;20420;-79
2023/05/05 02:55:57;;;;;;;24.23;22.53;;;;;;;;;;5099695;28;20401;-79
2023/05/05 02:58:29;;;;;;;23.97;22.57;;;;;;;;;;5099655;28;20425;-79
2023/05/05 03:01:02;;;;;;;24.23;22.60;;;;;;;;;;5088413;28;20429;-80
2023/05/05 03:03:33;;;;;;;25.87;23.77;;;;;;;;;;5083267;28;20456;-81
2023/05/05 03:06:03;;;;;;;24.13;22.83;;;;;;;;;;5082879;28;20420;-80
2023/05/05 03:08:30;;;;;;;24.93;23.47;;;;;;;;;;5083437;28;20429;-80
2023/05/05 03:10:59;;;;;;;24.13;22.80;;;;;;;;;;5083480;28;20432;-80
2023/05/05 03:13:28;;;;;;;24.07;22.30;;;;;;;;;;5083101;28;20504;-81
2023/05/05 03:15:57;;;;;;;23.10;21.80;;;;;;;;;;5082918;28;20445;-80
2023/05/05 03:18:24;;;;;;;23.73;22.20;;;;;;;;;;5083461;28;20476;-79
2023/05/05 03:20:52;;;;;;;23.80;22.40;;;;;;;;;;5082901;28;20484;-79
2023/05/05 03:23:19;;;;;;;24.10;22.50;;;;;;;;;;5082851;28;20477;-80
2023/05/05 03:25:48;;;;;;;23.20;21.90;;;;;;;;;;5081876;28;20446;-79
2023/05/05 03:28:15;;;;;;;24.03;22.40;;;;;;;;;;5082757;28;20485;-79
2023/05/05 03:30:43;;;;;;;24.40;22.77;;;;;;;;;;5081368;28;21073;-79
2023/05/05 03:33:11;;;;;;;23.03;21.57;;;;;;;;;;5081861;28;20416;-80
2023/05/05 03:35:38;;;;;;;23.83;22.30;;;;;;;;;;5081508;28;20553;-80
2023/05/05 03:38:05;;;;;;;24.57;23.07;;;;;;;;;;5082070;28;21140;-79
2023/05/05 03:40:32;;;;;;;24.30;22.60;;;;;;;;;;5080719;28;20513;-78
2023/05/05 03:42:59;;;;;;;24.53;23.13;;;;;;;;;;5081405;28;20934;-80
2023/05/05 03:45:26;;;;;;;25.23;23.73;;;;;;;;;;5080305;28;20852;-80
2023/05/05 03:47:55;;;;;;;25.73;24.10;;;;;;;;;;5081396;28;20820;-79
2023/05/05 03:50:23;;;;;;;24.40;22.90;;;;;;;;;;5080406;28;20865;-80
2023/05/05 03:52:50;;;;;;;24.40;22.80;;;;;;;;;;5081426;28;20830;-80
2023/05/05 03:55:17;;;;;;;24.00;22.40;;;;;;;;;;5081485;28;20420;-78
2023/05/05 03:57:44;;;;;;;24.60;22.70;;;;;;;;;;5080640;28;20960;-80
2023/05/05 04:00:12;;;;;;;24.23;22.73;;;;;;;;;;5080463;28;21341;-79
2023/05/05 04:02:39;;;;;;;23.50;22.10;;;;;;;;;;5080199;28;20405;-79
2023/05/05 04:05:07;;;;;;;24.40;22.90;;;;;;;;;;5079582;28;20452;-79
2023/05/05 04:07:34;;;;;;;23.97;22.30;;;;;;;;;;5077576;28;20499;-77
2023/05/05 04:10:01;;;;;;;23.80;22.40;;;;;;;;;;5075298;28;20466;-77
2023/05/05 04:12:28;;;;;;;25.07;23.23;;;;;;;;;;5075209;28;20962;-77
2023/05/05 04:14:55;;;;;;;23.70;22.27;;;;;;;;;;5075961;28;20496;-77
2023/05/05 04:17:23;;;;;;;24.00;22.43;;;;;;;;;;5074794;28;20462;-78
2023/05/05 04:19:50;;;;;;;24.53;22.90;;;;;;;;;;5074526;28;20480;-78
2023/05/05 04:22:18;;;;;;;24.17;22.67;;;;;;;;;;5074726;28;20474;-78
2023/05/05 04:24:46;;;;;;;24.90;23.50;;;;;;;;;;5074577;28;20531;-78
2023/05/05 04:27:13;;;;;;;24.80;22.97;;;;;;;;;;5074005;28;20796;-77
2023/05/05 04:29:40;;;;;;;24.37;22.67;;;;;;;;;;5073885;28;20514;-78
2023/05/05 04:32:07;;;;;;;24.20;22.90;;;;;;;;;;5074257;28;20884;-78
2023/05/05 04:34:34;;;;;;;25.33;23.73;;;;;;;;;;5074252;28;20507;-77
2023/05/05 04:37:01;;;;;;;25.57;23.87;;;;;;;;;;5073689;28;20446;-77
2023/05/05 04:39:30;;;;;;;26.03;24.33;;;;;;;;;;5074372;28;20481;-78
2023/05/05 04:41:57;;;;;;;24.13;22.63;;;;;;;;;;5074304;28;20456;-77
2023/05/05 04:44:24;;;;;;;24.60;23.00;;;;;;;;;;5073096;28;20981;-78
2023/05/05 04:46:51;;;;;;;24.40;22.83;;;;;;;;;;5073607;28;20552;-77
2023/05/05 04:49:18;;;;;;;26.10;24.20;;;;;;;;;;5073302;28;21002;-78
2023/05/05 04:51:45;;;;;;;24.83;23.00;;;;;;;;;;5073582;28;20861;-77
2023/05/05 04:54:12;;;;;;;25.13;23.73;;;;;;;;;;5074129;28;20446;-77
2023/05/05 04:56:41;;;;;;;25.43;23.87;;;;;;;;;;5073479;28;20491;-77
2023/05/05 04:59:08;;;;;;;24.87;23.40;;;;;;;;;;5073801;28;20489;-77
2023/05/05 05:01:35;;;;;;;25.50;23.90;;;;;;;;;;5074023;28;20474;-78
2023/05/05 05:04:03;;;;;;;25.53;24.03;;;;;;;;;;5073906;28;20482;-77
2023/05/05 05:06:30;;;;;;;25.10;23.50;;;;;;;;;;5073459;28;20798;-77
2023/05/05 05:08:58;;;;;;;24.47;22.90;;;;;;;;;;5074279;28;20448;-77
2023/05/05 05:11:24;;;;;;;24.07;22.57;;;;;;;;;;5073814;28;20444;-77
2023/05/05 05:13:53;;;;;;;24.20;22.57;;;;;;;;;;5073986;28;20470;-77
2023/05/05 05:16:20;;;;;;;24.37;22.73;;;;;;;;;;5073705;28;20478;-77
2023/05/05 05:18:47;;;;;;;25.90;24.00;;;;;;;;;;5074060;28;20499;-77
2023/05/05 05:21:14;;;;;;;25.07;23.53;;;;;;;;;;5074158;28;20544;-77
2023/05/05 05:23:41;;;;;;;24.00;22.50;;;;;;;;;;5075739;28;20438;-78
2023/05/05 05:26:08;;;;;;;24.60;23.10;;;;;;;;;;5074172;28;20448;-77
2023/05/05 05:28:35;;;;;;;24.30;22.90;;;;;;;;;;5073717;28;20489;-77
2023/05/05 05:31:03;;;;;;;24.83;23.07;;;;;;;;;;5073285;28;20441;-77
2023/05/05 05:33:30;;;;;;;24.60;22.70;;;;;;;;;;5073733;28;20785;-78
2023/05/05 05:35:57;;;;;;;25.50;23.73;;;;;;;;;;5073454;28;20466;-77
2023/05/05 05:38:24;;;;;;;24.80;23.00;;;;;;;;;;5074202;28;20471;-79
2023/05/05 05:40:53;;;;;;;26.47;24.50;;;;;;;;;;5074614;28;20450;-82
2023/05/05 05:43:20;;;;;;;26.07;24.30;;;;;;;;;;5076765;28;20830;-77
2023/05/05 05:45:47;;;;;;;27.73;25.93;;;;;;;;;;5075887;28;20543;-78
2023/05/05 05:48:15;;;;;;;27.97;25.93;;;;;;;;;;5075511;28;20836;-78
2023/05/05 05:50:42;;;;;;;27.43;25.40;;;;;;;;;;5075552;28;20469;-79
2023/05/05 05:53:09;;;;;;;27.80;25.93;;;;;;;;;;5075862;28;20446;-78
2023/05/05 05:55:36;;;;;;;27.33;25.53;;;;;;;;;;5078166;28;20464;-78
2023/05/05 05:58:03;;;;;;;28.50;26.37;;;;;;;;;;5079352;28;20445;-78
2023/05/05 06:00:30;;;;;;;28.13;25.90;;;;;;;;;;5078846;28;20527;-77
2023/05/05 06:02:57;;;;;;;26.70;24.90;;;;;;;;;;5079391;28;20482;-78
2023/05/05 06:05:26;;;;;;;25.77;23.90;;;;;;;;;;5079730;28;20854;-78
2023/05/05 06:07:53;;;;;;;26.50;24.47;;;;;;;;;;5079799;28;20473;-78
2023/05/05 06:10:19;;;;;;;26.90;24.77;;;;;;;;;;5078703;28;20502;-78
2023/05/05 06:12:47;;;;;;;27.57;25.70;;;;;;;;;;5079587;28;20446;-78
2023/05/05 06:15:13;;;;;;;25.53;23.83;;;;;;;;;;5082645;28;20442;-79
2023/05/05 06:17:40;;;;;;;25.43;23.53;;;;;;;;;;5080660;28;20420;-78
2023/05/05 06:20:08;;;;;;;26.20;24.20;;;;;;;;;;5079756;28;20452;-78
2023/05/05 06:22:37;;;;;;;25.50;23.70;;;;;;;;;;5079978;28;20412;-79
2023/05/05 06:25:04;;;;;;;25.73;24.00;;;;;;;;;;5078847;28;21068;-78
2023/05/05 06:27:31;;;;;;;25.10;23.40;;;;;;;;;;5078361;28;20930;-79
2023/05/05 06:29:58;;;;;;;24.97;22.93;;;;;;;;;;5078672;28;20595;-78
2023/05/05 06:32:25;;;;;;;25.20;23.60;;;;;;;;;;5079185;28;20445;-78
2023/05/05 06:34:52;;;;;;;25.63;23.73;;;;;;;;;;5079300;28;20511;-78
2023/05/05 06:37:19;;;;;;;27.57;25.50;;;;;;;;;;5079874;28;20869;-79
2023/05/05 06:39:47;;;;;;;26.80;25.10;;;;;;;;;;5078697;28;20526;-77
2023/05/05 06:42:14;;;;;;;25.40;23.43;;;;;;;;;;5079270;28;20429;-78
2023/05/05 06:44:41;;;;;;;26.23;24.37;;;;;;;;;;5078994;28;20510;-78
2023/05/05 06:47:08;;;;;;;26.07;24.37;;;;;;;;;;5078490;28;20934;-78
2023/05/05 06:49:35;;;;;;;24.93;23.20;;;;;;;;;;5079505;28;20855;-76
2023/05/05 06:52:02;;;;;;;27.47;25.60;;;;;;;;;;5076842;28;20448;-87
2023/05/05 06:54:29;;;;;;;27.80;25.03;;;;;;;;;;5081029;28;20759;-90
2023/05/05 06:56:58;;;;;;;27.60;25.60;;;;;;;;;;5078286;28;20453;-77
2023/05/05 06:59:25;;;;;;;28.10;25.90;;;;;;;;;;5078598;28;20842;-84
2023/05/05 07:01:52;;;;;;;30.10;27.20;;;;;;;;;;5078502;28;20444;-86
2023/05/05 07:04:20;;;;;;;27.20;25.40;;;;;;;;;;5078900;28;20460;-87
2023/05/05 07:06:47;;;;;;;27.57;25.57;;;;;;;;;;5077930;28;20507;-87
2023/05/05 07:09:15;;;;;;;28.63;26.63;;;;;;;;;;5072619;28;21019;-88
2023/05/05 07:11:42;;;;;;;29.23;26.73;;;;;;;;;;5077177;28;20476;-87
2023/05/05 07:14:10;;;;;;;27.90;26.20;;;;;;;;;;5078248;28;20435;-86
2023/05/05 07:16:37;;;;;;;26.83;25.03;;;;;;;;;;5078081;28;20436;-88
2023/05/05 07:19:05;;;;;;;27.20;25.50;;;;;;;;;;5078888;28;20474;-87
2023/05/05 07:21:32;;;;;;;32.30;29.70;;;;;;;;;;5078809;28;21210;-88
2023/05/05 07:23:59;;;;;;;29.03;26.77;;;;;;;;;;5078794;28;20865;-89
2023/05/05 07:26:26;;;;;;;30.03;27.80;;;;;;;;;;5070890;28;20483;-89
2023/05/05 07:28:56;;;;;;;28.43;26.10;;;;;;;;;;5060462;28;20454;-89
2023/05/05 07:31:25;;;;;;;30.23;27.50;;;;;;;;;;5059828;28;20447;-90
2023/05/05 07:33:52;;;;;;;29.73;27.47;;;;;;;;;;5058408;28;21112;-78
2023/05/05 07:36:19;;;;;;;29.83;27.37;;;;;;;;;;5060060;28;20450;-78
2023/05/05 07:38:46;;;;;;;30.93;28.50;;;;;;;;;;5057905;28;20803;-78
2023/05/05 07:41:13;;;;;;;31.20;28.57;;;;;;;;;;5057958;28;20501;-78
2023/05/05 07:43:40;;;;;;;32.33;29.30;;;;;;;;;;5057001;28;20467;-78
2023/05/05 07:46:07;;;;;;;31.97;29.37;;;;;;;;;;5057460;28;20457;-77
2023/05/05 07:48:36;;;;;;;31.50;29.10;;;;;;;;;;5058038;28;20472;-78
2023/05/05 07:51:03;;;;;;;30.87;28.63;;;;;;;;;;5063047;28;20458;-77
2023/05/05 07:53:30;;;;;;;31.93;29.37;;;;;;;;;;5054328;28;20507;-77
2023/05/05 07:55:57;;;;;;;33.47;30.83;;;;;;;;;;5053906;28;20453;-77
2023/05/05 07:58:24;;;;;;;32.37;29.90;;;;;;;;;;5054330;28;20429;-77
2023/05/05 08:00:51;;;;;;;33.00;30.50;;;;;;;;;;5068807;28;20476;-76
2023/05/05 08:03:20;;;;;;;32.70;29.97;;;;;;;;;;5059128;28;21341;-77
2023/05/05 08:05:48;;;;;;;34.83;31.47;;;;;;;;;;5072496;28;21350;-77
2023/05/05 08:08:15;;;;;;;32.23;29.73;;;;;;;;;;5073458;28;20433;-77
2023/05/05 08:10:42;;;;;;;33.23;30.63;;;;;;;;;;5060520;28;20814;-77
2023/05/05 08:13:09;;;;;;;36.13;33.37;;;;;;;;;;5061123;28;20447;-77
2023/05/05 08:15:36;;;;;;;33.60;30.90;;;;;;;;;;5053845;28;20447;-78
2023/05/05 08:18:03;;;;;;;36.80;33.60;;;;;;;;;;5052751;28;20476;-77
2023/05/05 08:20:30;;;;;;;35.70;32.80;;;;;;;;;;5052959;28;21037;-77
2023/05/05 08:22:59;;;;;;;36.83;34.10;;;;;;;;;;5053544;28;20919;-76
2023/05/05 08:25:26;;;;;;;34.63;32.03;;;;;;;;;;5053675;28;20522;-77
2023/05/05 08:27:53;;;;;;;38.03;35.03;;;;;;;;;;5052887;28;20446;-77
2023/05/05 08:30:21;;;;;;;36.30;33.50;;;;;;;;;;5053308;28;20861;-77
2023/05/05 08:32:48;;;;;;;36.33;33.33;;;;;;;;;;5053775;28;20438;-76
2023/05/05 08:35:15;;;;;;;35.63;32.63;;;;;;;;;;5053219;28;20456;-76
2023/05/05 08:37:42;;;;;;;35.10;32.50;;;;;;;;;;5052077;28;20997;-76
2023/05/05 08:40:12;;;;;;;37.00;34.27;;;;;;;;;;5053180;28;20472;-77
2023/05/05 08:42:39;;;;;;;34.83;32.17;;;;;;;;;;5053322;28;20412;-77
2023/05/05 08:45:07;;;;;;;38.40;35.60;;;;;;;;;;5053242;28;20457;-77
2023/05/05 08:47:34;;;;;;;34.83;32.33;;;;;;;;;;5053933;28;20468;-78
2023/05/05 08:50:02;;;;;;;34.97;32.27;;;;;;;;;;5056292;28;20843;-78
2023/05/05 08:52:29;;;;;;;35.00;32.43;;;;;;;;;;5071245;28;20460;-77
2023/05/05 08:54:58;;;;;;;34.40;31.80;;;;;;;;;;5054435;28;20471;-75
2023/05/05 08:57:33;;;;;;;35.57;32.70;;;;;;;;;;5053395;28;20430;-76
2023/05/05 09:00:00;;;;;;;32.47;29.90;;;;;;;;;;5055011;28;20467;-79
2023/05/05 09:02:28;;;;;;;34.93;32.00;;;;;;;;;;5054616;28;20420;-77
2023/05/05 09:04:55;;;;;;;33.00;30.70;;;;;;;;;;5054321;28;20495;-77
2023/05/05 09:07:22;;;;;;;35.47;32.80;;;;;;;;;;5052090;28;20492;-77
2023/05/05 09:09:49;;;;;;;36.30;33.53;;;;;;;;;;5055974;28;20488;-77
2023/05/05 09:12:17;;;;;;;33.50;31.10;;;;;;;;;;5065507;28;20933;-77
2023/05/05 09:14:46;;;;;;;33.20;30.60;;;;;;;;;;5052458;28;20453;-77
2023/05/05 09:17:23;;;;;;;35.70;33.00;;;;;;;;;;5053573;28;20450;-85
2023/05/05 09:19:56;;;;;;;35.30;32.60;;;;;;;;;;5061697;28;20971;-79
2023/05/05 09:22:32;;;;;;;33.83;31.13;;;;;;;;;;5070514;28;20877;-78
2023/05/05 09:24:59;;;;;;;34.50;31.80;;;;;;;;;;5058066;28;20496;-82
2023/05/05 09:27:27;;;;;;;36.77;33.97;;;;;;;;;;5058712;28;20460;-80
2023/05/05 09:29:56;;;;;;;35.40;32.90;;;;;;;;;;5060256;28;20507;-80
2023/05/05 09:32:23;;;;;;;35.40;32.27;;;;;;;;;;5063309;28;20438;-79
2023/05/05 09:35:00;;;;;;;36.13;33.30;;;;;;;;;;5061176;28;20855;-78
2023/05/05 09:37:30;;;;;;;34.40;31.87;;;;;;;;;;5057697;28;20807;-78
2023/05/05 09:39:59;;;;;;;33.40;31.00;;;;;;;;;;5056436;28;20459;-77
2023/05/05 09:42:26;;;;;;;35.70;32.90;;;;;;;;;;5056881;28;20932;-77
2023/05/05 09:44:53;;;;;;;34.83;32.20;;;;;;;;;;5056978;28;20832;-77
2023/05/05 09:47:21;;;;;;;32.40;30.13;;;;;;;;;;5056611;28;20464;-77
2023/05/05 09:49:58;;;;;;;34.27;31.77;;;;;;;;;;5056743;28;20963;-78
2023/05/05 09:52:25;;;;;;;31.80;29.60;;;;;;;;;;5057398;28;20413;-77
2023/05/05 09:54:55;;;;;;;32.47;29.97;;;;;;;;;;5057002;28;20435;-77
2023/05/05 09:57:26;;;;;;;31.80;29.60;;;;;;;;;;5056761;28;20514;-76
2023/05/05 09:59:55;;;;;;;32.23;29.93;;;;;;;;;;5057292;28;20527;-78
2023/05/05 10:02:30;;;;;;;31.20;28.90;;;;;;;;;;5056499;28;20464;-77
2023/05/05 10:05:05;;;;;;;32.67;30.27;;;;;;;;;;5057787;28;20431;-78
2023/05/05 10:07:32;;;;;;;32.37;29.97;;;;;;;;;;5071400;28;20564;-86
2023/05/05 10:10:11;;;;;;;29.77;27.63;;;;;;;;;;5064950;28;20432;-87
2023/05/05 10:12:38;;;;;;;33.90;31.40;;;;;;;;;;5067369;28;20431;-84
2023/05/05 10:15:06;;;;;;;32.23;29.93;;;;;;;;;;5083441;28;20444;-84
2023/05/05 10:17:36;;;;;;;32.57;30.20;;;;;;;;;;5080249;28;20960;-76
2023/05/05 10:20:04;;;;;;;24.67;23.13;;;;;;;;;;5075200;28;21015;-76
2023/05/05 10:22:34;;;;;;;27.23;25.23;;;;;;;;;;5075111;28;20954;-76
2023/05/05 10:25:03;;;;;;;27.83;26.03;;;;;;;;;;5075509;28;20456;-76
2023/05/05 10:27:33;;;;;;;27.07;25.47;;;;;;;;;;5054621;28;20476;-76
2023/05/05 10:30:03;;;;;;;26.87;25.17;;;;;;;;;;5055517;28;20448;-76
2023/05/05 10:32:32;;;;;;;26.43;24.73;;;;;;;;;;5055529;28;20409;-76
2023/05/05 10:35:03;;;;;;;27.17;25.47;;;;;;;;;;5054747;28;20455;-77
2023/05/05 10:37:30;;;;;;;27.13;25.50;;;;;;;;;;5055930;28;20523;-77
2023/05/05 10:39:57;;;;;;;26.33;24.73;;;;;;;;;;5056949;28;20497;-76
2023/05/05 10:42:24;;;;;;;26.73;24.70;;;;;;;;;;5057659;28;20450;-77
2023/05/05 10:44:52;;;;;;;27.53;25.63;;;;;;;;;;5055486;28;20997;-75
2023/05/05 10:47:20;;;;;;;27.23;25.53;;;;;;;;;;5054234;28;21019;-75
2023/05/05 10:49:49;;;;;;;28.90;27.00;;;;;;;;;;5055165;28;20562;-82
2023/05/05 10:52:23;;;;;;;28.40;26.63;;;;;;;;;;5059007;28;20462;-83
2023/05/05 10:54:52;;;;;;;27.63;25.83;;;;;;;;;;5060483;28;20993;-84
2023/05/05 10:57:21;;;;;;;27.57;25.87;;;;;;;;;;5060587;28;20477;-85
2023/05/05 10:59:48;;;;;;;28.83;26.80;;;;;;;;;;5063263;28;20449;-84
2023/05/05 11:02:18;;;;;;;28.60;26.83;;;;;;;;;;5061064;28;20906;-84
2023/05/05 11:05:03;;;;;;;28.60;26.50;;;;;;;;;;5061313;28;20484;-84
2023/05/05 11:07:33;;;;;;;27.43;25.67;;;;;;;;;;5061014;28;20490;-83
2023/05/05 11:10:01;;;;;;;27.50;25.87;;;;;;;;;;5065642;28;20469;-86
2023/05/05 11:12:28;;;;;;;27.63;25.70;;;;;;;;;;5060778;28;20435;-85
2023/05/05 11:15:13;;;;;;;27.30;25.23;;;;;;;;;;5056890;28;20424;-75
2023/05/05 11:17:47;;;;;;;26.23;24.63;;;;;;;;;;5053456;28;20454;-75
2023/05/05 11:20:14;;;;;;;27.40;25.50;;;;;;;;;;5054553;28;20967;-75
2023/05/05 11:22:59;;;;;;;27.53;25.80;;;;;;;;;;5054833;28;20466;-76
2023/05/05 11:25:47;;;;;;;27.07;25.23;;;;;;;;;;5054396;28;20784;-76
2023/05/05 11:28:17;;;;;;;29.00;27.10;;;;;;;;;;5054308;28;20446;-75
2023/05/05 11:31:09;;;;;;;28.37;26.57;;;;;;;;;;5053832;28;20539;-75
2023/05/05 11:33:36;;;;;;;29.20;27.10;;;;;;;;;;5040132;28;20471;-78
2023/05/05 11:36:05;;;;;;;28.03;26.13;;;;;;;;;;5054147;28;20426;-77
2023/05/05 11:38:40;;;;;;;30.90;28.70;;;;;;;;;;5055099;28;20921;-78
2023/05/05 11:41:12;;;;;;;28.43;26.53;;;;;;;;;;5054160;28;20442;-78
2023/05/05 11:43:41;;;;;;;28.53;26.53;;;;;;;;;;5053561;28;20462;-76
2023/05/05 11:46:11;;;;;;;27.23;25.43;;;;;;;;;;5053449;28;20486;-78
2023/05/05 11:48:45;;;;;;;28.80;26.90;;;;;;;;;;5053994;28;20462;-78
2023/05/05 11:51:12;;;;;;;27.70;26.00;;;;;;;;;;5055067;28;20428;-83
2023/05/05 11:53:42;;;;;;;28.60;26.60;;;;;;;;;;5060892;28;20854;-81
2023/05/05 11:56:10;;;;;;;27.17;25.47;;;;;;;;;;5057956;28;20435;-78
2023/05/05 11:58:37;;;;;;;26.17;24.53;;;;;;;;;;5055089;28;20512;-78
2023/05/05 12:01:06;;;;;;;27.20;25.50;;;;;;;;;;5057047;28;20450;-78
2023/05/05 12:03:37;;;;;;;26.07;24.27;;;;;;;;;;5055030;28;20528;-78
2023/05/05 12:06:04;;;;;;;26.70;25.10;;;;;;;;;;5060893;28;20531;-78
2023/05/05 12:08:36;;;;;;;26.17;24.67;;;;;;;;;;5076361;28;20453;-78
2023/05/05 12:11:03;;;;;;;26.17;24.57;;;;;;;;;;5075076;28;20444;-78
2023/05/05 12:13:30;;;;;;;29.67;27.53;;;;;;;;;;5074638;28;20441;-77
2023/05/05 12:15:57;;;;;;;28.60;26.63;;;;;;;;;;5073777;28;20420;-77
2023/05/05 12:18:26;;;;;;;27.77;26.07;;;;;;;;;;5074587;28;20474;-77
2023/05/05 12:20:53;;;;;;;27.00;25.30;;;;;;;;;;5074355;28;20427;-77
2023/05/05 12:23:20;;;;;;;26.50;24.90;;;;;;;;;;5075741;28;20458;-78
2023/05/05 12:25:47;;;;;;;28.47;26.40;;;;;;;;;;5074874;28;20445;-78
2023/05/05 12:28:14;;;;;;;28.07;26.33;;;;;;;;;;5075296;28;20492;-78
2023/05/05 12:30:41;;;;;;;27.03;25.10;;;;;;;;;;5075045;28;20484;-78
2023/05/05 12:33:10;;;;;;;28.20;26.30;;;;;;;;;;5074357;28;20424;-78
2023/05/05 12:35:40;;;;;;;25.23;23.67;;;;;;;;;;5074069;28;20478;-77
2023/05/05 12:38:07;;;;;;;28.00;26.20;;;;;;;;;;5074786;28;20510;-78
2023/05/05 12:40:47;;;;;;;27.77;26.07;;;;;;;;;;5074321;28;20462;-77
2023/05/05 12:43:27;;;;;;;25.30;23.63;;;;;;;;;;5077063;28;20430;-77
2023/05/05 12:46:04;;;;;;;26.43;24.63;;;;;;;;;;5084894;28;20439;-78
2023/05/05 12:48:31;;;;;;;27.47;25.77;;;;;;;;;;5083545;28;20478;-77
2023/05/05 12:51:12;;;;;;;27.20;25.40;;;;;;;;;;5081153;28;20854;-78
2023/05/05 12:53:39;;;;;;;37.53;34.83;;;;;;;;;;5076719;28;20487;-78
2023/05/05 12:56:06;;;;;;;24.90;23.03;;;;;;;;;;5075815;28;20825;-78
2023/05/05 12:58:47;;;;;;;25.50;23.80;;;;;;;;;;5077328;28;20450;-79
2023/05/05 13:01:14;;;;;;;23.90;22.50;;;;;;;;;;5076272;28;20942;-78
2023/05/05 13:03:41;;;;;;;23.50;22.20;;;;;;;;;;5077002;28;20989;-78
2023/05/05 13:06:20;;;;;;;24.80;23.30;;;;;;;;;;5076614;28;20991;-78
2023/05/05 13:08:47;;;;;;;23.40;22.20;;;;;;;;;;5077619;28;20466;-78
2023/05/05 13:11:14;;;;;;;24.97;23.40;;;;;;;;;;5076768;28;20469;-78
2023/05/05 13:13:41;;;;;;;25.00;23.60;;;;;;;;;;5076485;28;20859;-78
2023/05/05 13:16:08;;;;;;;23.80;22.40;;;;;;;;;;5076089;28;20424;-77
2023/05/05 13:18:43;;;;;;;24.50;23.10;;;;;;;;;;5078360;28;20450;-80
2023/05/05 13:21:10;;;;;;;23.60;22.20;;;;;;;;;;5078218;28;20867;-80
2023/05/05 13:23:39;;;;;;;24.77;23.27;;;;;;;;;;5079042;28;20458;-80
2023/05/05 13:26:06;;;;;;;24.00;22.60;;;;;;;;;;5079321;28;20983;-80
2023/05/05 13:28:33;;;;;;;23.13;21.93;;;;;;;;;;5079144;28;20433;-80
2023/05/05 13:31:00;;;;;;;23.33;21.93;;;;;;;;;;5079012;28;20444;-80
2023/05/05 13:33:27;;;;;;;23.00;21.50;;;;;;;;;;5080563;28;20490;-80
2023/05/05 13:35:54;;;;;;;22.30;21.00;;;;;;;;;;5078886;28;20435;-80
2023/05/05 13:38:21;;;;;;;23.80;22.20;;;;;;;;;;5079683;28;20412;-80
2023/05/05 13:40:50;;;;;;;22.50;21.20;;;;;;;;;;5078986;28;20460;-81
2023/05/05 13:43:17;;;;;;;25.20;23.60;;;;;;;;;;5078913;28;20447;-81
2023/05/05 13:45:44;;;;;;;22.90;21.60;;;;;;;;;;5078590;28;20457;-79
2023/05/05 13:48:11;;;;;;;23.80;22.30;;;;;;;;;;5085107;28;20510;-79
2023/05/05 13:50:38;;;;;;;23.07;21.80;;;;;;;;;;5079250;28;20436;-80
2023/05/05 13:53:05;;;;;;;22.40;21.10;;;;;;;;;;5078243;28;20436;-81
2023/05/05 13:55:32;;;;;;;22.93;21.63;;;;;;;;;;5078917;28;20450;-80
2023/05/05 13:58:00;;;;;;;22.80;21.50;;;;;;;;;;5079493;28;20472;-80
2023/05/05 14:00:27;;;;;;;23.03;21.63;;;;;;;;;;5079702;28;20440;-80
2023/05/05 14:02:54;;;;;;;23.33;21.93;;;;;;;;;;5078059;28;20793;-81
2023/05/05 14:05:22;;;;;;;24.13;22.53;;;;;;;;;;5079042;28;20848;-80
2023/05/05 14:07:49;;;;;;;22.53;21.23;;;;;;;;;;5078379;28;20460;-81
2023/05/05 14:10:16;;;;;;;22.77;21.47;;;;;;;;;;5078656;28;20439;-80
2023/05/05 14:12:43;;;;;;;22.90;21.63;;;;;;;;;;5077957;28;20850;-79
2023/05/05 14:15:12;;;;;;;23.47;22.20;;;;;;;;;;5079113;28;20428;-80
2023/05/05 14:17:39;;;;;;;24.43;22.93;;;;;;;;;;5081069;28;21112;-79
2023/05/05 14:20:06;;;;;;;22.97;21.57;;;;;;;;;;5082262;28;20498;-79
2023/05/05 14:22:33;;;;;;;24.43;23.03;;;;;;;;;;5081468;28;20469;-79
2023/05/05 14:25:00;;;;;;;24.03;22.63;;;;;;;;;;5081921;28;20442;-80